Time;durP1;ratioP1;P1;durP2;ratioP2;P2;SDS_P1;SDS_P2;PMS_P1;PMS_P2;Temp;Humidity;BMP_temperature;BMP_pressure;BME280_temperature;BME280_humidity;BME280_pressure;Samples;Min_cycle;Max_cycle;Signal;HPM_P1;HPM_P2
2022/05/07 00:00:51;;;;;;;;;;;;;;;-144.99;75.95;52264.66;5073433;28;19939;-61
2022/05/07 00:03:18;;;;;;;;;;;;;;;-144.99;76.55;52315.59;5067314;28;19936;-61
2022/05/07 00:05:45;;;;;;;;;;;;;;;-144.99;77.01;52289.13;5079837;28;19935;-61
2022/05/07 00:08:11;;;;;;;;;;;;;;;-144.99;77.67;52309.50;5074445;28;19928;-61
2022/05/07 00:10:38;;;;;;;;;;;;;;;-144.99;78.20;52268.72;5070751;28;20136;-60
2022/05/07 00:13:04;;;;;;;;;;;;;;;-144.99;78.61;52260.56;5072620;28;19928;-65
2022/05/07 00:15:31;;;;;;;;;;;;;;;-144.99;78.96;52299.31;5067350;28;19928;-63
2022/05/07 00:18:03;;;;;;;;;;;;;;;-144.99;79.65;52280.97;5073877;28;19928;-62
2022/05/07 00:20:31;;;;;;;;;;;;;;;-144.99;79.74;52309.50;5070210;28;20312;-62
2022/05/07 00:22:58;;;;;;;;;;;;;;;-144.99;79.83;52305.41;5071288;28;19932;-62
2022/05/07 00:25:25;;;;;;;;;;;;;;;-144.99;79.84;52315.59;5072721;28;19928;-62
2022/05/07 00:27:51;;;;;;;;;;;;;;;-144.99;80.02;52264.66;5073767;28;20432;-63
2022/05/07 00:30:18;;;;;;;;;;;;;;;-144.99;80.29;52260.56;5074595;28;19935;-64
2022/05/07 00:32:44;;;;;;;;;;;;;;;-144.99;80.26;52317.66;5075794;28;19929;-65
2022/05/07 00:35:11;;;;;;;;;;;;;;;-144.99;80.34;52295.22;5076007;28;19940;-63
2022/05/07 00:37:38;;;;;;;;;;;;;;;-144.99;80.25;52299.31;5074313;28;19924;-63
2022/05/07 00:40:06;;;;;;;;;;;;;;;-144.99;80.25;52293.19;5076752;28;20329;-64
2022/05/07 00:42:32;;;;;;;;;;;;;;;-144.99;80.69;52264.66;5072645;28;19924;-63
2022/05/07 00:44:58;;;;;;;;;;;;;;;-144.99;80.52;52244.28;5071495;28;20031;-63
2022/05/07 00:47:25;;;;;;;;;;;;;;;-144.99;80.80;52272.81;5074428;28;19928;-64
2022/05/07 00:49:53;;;;;;;;;;;;;;;-144.99;80.92;52342.09;5073071;28;19935;-63
2022/05/07 00:52:18;;;;;;;;;;;;;;;-144.99;80.64;52319.69;5068188;28;19929;-63
2022/05/07 00:54:46;;;;;;;;;;;;;;;-144.99;80.96;52297.25;5070342;28;20032;-63
2022/05/07 00:57:13;;;;;;;;;;;;;;;-144.99;81.09;52321.72;5075903;28;19935;-63
2022/05/07 00:59:40;;;;;;;;;;;;;;;-144.99;81.22;52272.81;5071667;28;20019;-63
2022/05/07 01:02:06;;;;;;;;;;;;;;;-144.99;81.41;52287.06;5069519;28;20353;-63
2022/05/07 01:04:33;;;;;;;;;;;;;;;-144.99;81.42;52285.03;5069604;28;19928;-63
2022/05/07 01:07:00;;;;;;;;;;;;;;;-144.99;81.62;52291.16;5068418;28;19925;-63
2022/05/07 01:09:26;;;;;;;;;;;;;;;-144.99;81.79;52329.88;5068844;28;19939;-62
2022/05/07 01:11:55;;;;;;;;;;;;;;;-144.99;81.61;52293.19;5076786;28;19936;-62
2022/05/07 01:14:22;;;;;;;;;;;;;;;-144.99;81.88;52280.97;5072013;28;19943;-60
2022/05/07 01:16:48;;;;;;;;;;;;;;;-144.99;82.33;52301.34;5068329;28;19928;-60
2022/05/07 01:19:14;;;;;;;;;;;;;;;-144.99;82.68;52301.34;5074554;28;20113;-61
2022/05/07 01:21:42;;;;;;;;;;;;;;;-144.99;83.20;52297.25;5072164;28;19941;-61
2022/05/07 01:24:08;;;;;;;;;;;;;;;-144.99;83.33;52358.41;5069871;28;20149;-61
2022/05/07 01:26:36;;;;;;;;;;;;;;;-144.99;83.69;52301.34;5072514;28;19929;-61
2022/05/07 01:29:03;;;;;;;;;;;;;;;-144.99;84.07;52297.25;5071350;28;20010;-60
2022/05/07 01:31:30;;;;;;;;;;;;;;;-144.99;84.13;52285.03;5073878;28;20248;-61
2022/05/07 01:33:56;;;;;;;;;;;;;;;-144.99;84.25;52295.22;5073931;28;19939;-61
2022/05/07 01:36:23;;;;;;;;;;;;;;;-144.99;85.11;52321.72;5067108;28;19924;-60
2022/05/07 01:38:51;;;;;;;;;;;;;;;-144.99;85.00;52287.06;5075672;28;19928;-61
2022/05/07 01:41:18;;;;;;;;;;;;;;;-144.99;85.85;52309.50;5070104;28;19944;-61
2022/05/07 01:43:45;;;;;;;;;;;;;;;-144.99;85.96;52303.38;5064705;28;20425;-62
2022/05/07 01:48:51;;;;;;;;;;;;;;;-144.99;86.47;52305.41;5061388;28;19947;-60
2022/05/07 01:51:18;;;;;;;;;;;;;;;-144.99;86.96;52289.13;5070740;28;19931;-60
2022/05/07 01:53:44;;;;;;;;;;;;;;;-144.99;87.16;52283.00;5073319;28;19947;-59
2022/05/07 01:56:12;;;;;;;;;;;;;;;-144.99;87.10;52321.72;4720826;28;10000124;-60
2022/05/07 01:58:38;;;;;;;;;;;;;;;-144.99;87.30;52293.19;5079421;28;19940;-60
2022/05/07 02:01:05;;;;;;;;;;;;;;;-144.99;87.24;52309.50;5076947;28;20155;-60
2022/05/07 02:03:31;;;;;;;;;;;;;;;-144.99;87.14;52309.50;5069252;28;19929;-60
2022/05/07 02:05:57;;;;;;;;;;;;;;;-144.99;87.14;52289.13;5084927;28;19928;-60
2022/05/07 02:08:24;;;;;;;;;;;;;;;-144.99;87.26;52293.19;5076840;28;19928;-60
2022/05/07 02:10:50;;;;;;;;;;;;;;;-144.99;87.11;52315.59;5080109;22;19925;-60
2022/05/07 02:13:18;;;;;;;;;;;;;;;-144.99;87.35;52291.16;5051346;28;20355;-60
2022/05/07 02:15:44;;;;;;;;;;;;;;;-144.99;87.26;52268.72;5049710;28;20381;-60
2022/05/07 02:18:11;;;;;;;;;;;;;;;-144.99;87.49;52268.72;5042829;28;19984;-60
2022/05/07 02:20:37;;;;;;;;;;;;;;;-144.99;87.39;52297.25;5049714;28;19925;-60
2022/05/07 02:23:03;;;;;;;;;;;;;;;-144.99;87.56;52260.56;5049858;28;20129;-62
2022/05/07 02:25:30;;;;;;;;;;;;;;;-144.99;87.70;52280.97;5038745;28;19933;-60
2022/05/07 02:27:57;;;;;;;;;;;;;;;-144.99;88.47;52283.00;5049569;28;19925;-60
2022/05/07 02:30:24;;;;;;;;;;;;;;;-144.99;88.74;52297.25;5046027;28;19985;-59
2022/05/07 02:32:51;;;;;;;;;;;;;;;-144.99;89.17;52285.03;5045543;28;19931;-59
2022/05/07 02:35:17;;;;;;;;;;;;;;;-144.99;89.04;52264.66;5049202;28;19932;-59
2022/05/07 02:37:44;;;;;;;;;;;;;;;-144.99;89.42;52285.03;5044498;28;19929;-60
2022/05/07 02:40:10;;;;;;;;;;;;;;;-144.99;89.95;52331.91;5048867;28;19925;-59
2022/05/07 02:42:36;;;;;;;;;;;;;;;-144.99;90.29;52280.97;5034484;28;19932;-59
2022/05/07 02:45:04;;;;;;;;;;;;;;;-144.99;90.85;52280.97;5036201;28;19925;-59
2022/05/07 02:47:31;;;;;;;;;;;;;;;-144.99;91.79;52283.00;5045209;28;20297;-59
2022/05/07 02:49:58;;;;;;;;;;;;;;;-144.99;92.97;52309.50;5036810;28;20374;-59
2022/05/07 02:52:24;;;;;;;;;;;;;;;-144.99;94.01;52325.81;5044505;28;19952;-59
2022/05/07 02:54:51;;;;;;;;;;;;;;;-144.99;94.54;52317.66;5050429;28;20001;-59
2022/05/07 02:57:17;;;;;;;;;;;;;;;-144.99;96.21;52344.16;5048265;28;20374;-59
2022/05/07 02:59:43;;;;;;;;;;;;;;;-144.99;97.31;52297.25;5040004;28;20139;-59
2022/05/07 03:02:10;;;;;;;;;;;;;;;-144.99;97.79;52323.75;5047389;28;19931;-59
2022/05/07 03:04:37;;;;;;;;;;;;;;;-144.99;98.14;52305.41;5041675;28;19929;-59
2022/05/07 03:07:04;;;;;;;;;;;;;;;-144.99;99.06;52321.72;5046530;28;19936;-59
2022/05/07 03:09:30;;;;;;;;;;;;;;;-144.99;99.27;52323.75;5046000;28;19925;-58
2022/05/07 03:11:57;;;;;;;;;;;;;;;-144.99;99.37;52260.56;5044941;28;19932;-59
2022/05/07 03:14:23;;;;;;;;;;;;;;;-144.99;99.58;52280.97;5043368;28;19924;-58
2022/05/07 03:16:49;;;;;;;;;;;;;;;-144.99;99.34;52309.50;5044969;28;19929;-60
2022/05/07 03:19:16;;;;;;;;;;;;;;;-144.99;99.86;52289.13;5048830;28;19932;-58
2022/05/07 03:21:44;;;;;;;;;;;;;;;-144.99;99.82;52260.56;5039649;28;19925;-58
2022/05/07 03:24:10;;;;;;;;;;;;;;;-144.99;100.00;52293.19;5043838;28;20446;-58
2022/05/07 03:26:37;;;;;;;;;;;;;;;-144.99;100.00;52280.97;5044457;28;19925;-58
2022/05/07 03:29:03;;;;;;;;;;;;;;;-144.99;100.00;52309.50;5036458;28;19933;-58
2022/05/07 03:31:30;;;;;;;;;;;;;;;-144.99;100.00;52260.56;5050851;28;19928;-57
2022/05/07 03:33:56;;;;;;;;;;;;;;;-144.99;100.00;52289.13;5036522;28;19979;-59
2022/05/07 03:36:22;;;;;;;;;;;;;;;-144.99;100.00;52297.25;5048563;28;19925;-58
2022/05/07 03:38:50;;;;;;;;;;;;;;;-144.99;100.00;52289.13;5042010;28;19943;-59
2022/05/07 03:41:19;;;;;;;;;;;;;;;-144.99;100.00;52333.94;5042135;28;19925;-60
2022/05/07 03:43:45;;;;;;;;;;;;;;;-144.99;100.00;52319.69;5044031;28;19929;-58
2022/05/07 03:46:11;;;;;;;;;;;;;;;-144.99;100.00;52260.56;5034985;28;19925;-58
2022/05/07 03:48:38;;;;;;;;;;;;;;;-144.99;100.00;52246.31;5045178;28;19936;-58
2022/05/07 03:51:04;;;;;;;;;;;;;;;-144.99;100.00;52305.41;5037124;28;19936;-60
2022/05/07 03:53:30;;;;;;;;;;;;;;;-144.99;100.00;52293.19;5044356;28;19948;-64
2022/05/07 03:55:58;;;;;;;;;;;;;;;-144.99;100.00;52283.00;5046927;28;20365;-62
2022/05/07 03:58:25;;;;;;;;;;;;;;;-144.99;100.00;52293.19;5046870;28;20301;-62
2022/05/07 04:00:52;;;;;;;;;;;;;;;-144.99;100.00;52309.50;5040389;28;19958;-63
2022/05/07 04:03:18;;;;;;;;;;;;;;;-144.99;100.00;52276.88;5042950;28;19929;-63
2022/05/07 04:05:45;;;;;;;;;;;;;;;-144.99;100.00;52329.88;5041455;28;19928;-63
2022/05/07 04:08:11;;;;;;;;;;;;;;;-144.99;100.00;52258.53;5042366;28;20381;-62
2022/05/07 04:10:37;;;;;;;;;;;;;;;-144.99;100.00;52293.19;5049721;28;19967;-62
2022/05/07 04:13:05;;;;;;;;;;;;;;;-144.99;100.00;52278.91;5035520;28;19925;-62
2022/05/07 04:15:32;;;;;;;;;;;;;;;-144.99;100.00;52268.72;5046753;28;20378;-62
2022/05/07 04:17:58;;;;;;;;;;;;;;;-144.99;100.00;52244.28;5041971;28;19932;-62
2022/05/07 04:20:25;;;;;;;;;;;;;;;-144.99;100.00;52333.94;5041415;28;19929;-61
2022/05/07 04:22:51;;;;;;;;;;;;;;;-144.99;100.00;52276.88;5044849;28;20247;-61
2022/05/07 04:25:17;;;;;;;;;;;;;;;-144.99;100.00;52289.13;5041844;28;19960;-61
2022/05/07 04:27:44;;;;;;;;;;;;;;;-144.99;100.00;52307.47;5047546;28;20027;-60
2022/05/07 04:30:12;;;;;;;;;;;;;;;-144.99;100.00;52283.00;5043298;28;19925;-63
2022/05/07 04:32:39;;;;;;;;;;;;;;;-144.99;100.00;52289.13;5044588;28;20428;-62
2022/05/07 04:35:06;;;;;;;;;;;;;;;-144.99;100.00;52268.72;5040450;28;20512;-63
2022/05/07 04:37:32;;;;;;;;;;;;;;;-144.99;100.00;52285.03;5045399;28;19991;-63
2022/05/07 04:39:59;;;;;;;;;;;;;;;-144.99;100.00;52293.19;5045830;28;19932;-62
2022/05/07 04:42:25;;;;;;;;;;;;;;;-144.99;100.00;52289.13;5032995;28;19964;-62
2022/05/07 04:44:52;;;;;;;;;;;;;;;-144.99;100.00;52289.13;5046354;28;19924;-61
2022/05/07 04:47:19;;;;;;;;;;;;;;;-144.99;100.00;52301.34;5049254;28;20416;-61
2022/05/07 04:49:46;;;;;;;;;;;;;;;-144.99;100.00;52268.72;5038199;28;20412;-60
2022/05/07 04:52:12;;;;;;;;;;;;;;;-144.99;100.00;52262.63;5041621;28;19932;-61
2022/05/07 04:54:38;;;;;;;;;;;;;;;-144.99;100.00;52301.34;5045468;28;19944;-61
2022/05/07 04:57:05;;;;;;;;;;;;;;;-144.99;100.00;52289.13;5046019;28;20020;-62
2022/05/07 04:59:32;;;;;;;;;;;;;;;-144.99;100.00;52258.53;5039237;28;19924;-61
2022/05/07 05:01:58;;;;;;;;;;;;;;;-144.99;100.00;52293.19;5045378;28;20015;-60
2022/05/07 05:04:26;;;;;;;;;;;;;;;-144.99;100.00;52289.13;5038572;28;19925;-61
2022/05/07 05:06:52;;;;;;;;;;;;;;;-144.99;100.00;52301.34;5043200;28;19936;-60
2022/05/07 05:09:18;;;;;;;;;;;;;;;-144.99;100.00;52293.19;5042282;28;20414;-61
2022/05/07 05:11:45;;;;;;;;;;;;;;;-144.99;100.00;52313.56;5042275;28;19925;-60
2022/05/07 05:16:52;;;;;;;;;;;;;;;-144.99;100.00;52307.47;5040935;28;20397;-60
2022/05/07 05:19:19;;;;;;;;;;;;;;;-144.99;100.00;52240.19;5045054;28;20382;-60
2022/05/07 05:21:47;;;;;;;;;;;;;;;-144.99;100.00;52236.13;5037816;28;20031;-60
2022/05/07 05:24:13;;;;;;;;;;;;;;;-144.99;100.00;52248.34;5037225;28;20011;-60
2022/05/07 05:26:40;;;;;;;;;;;;;;;-144.99;100.00;52272.81;5036455;28;19925;-58
2022/05/07 05:29:06;;;;;;;;;;;;;;;-144.99;100.00;52276.88;5039516;28;19940;-58
2022/05/07 05:31:33;;;;;;;;;;;;;;;-144.99;100.00;52260.56;5049063;28;19931;-60
2022/05/07 05:33:59;;;;;;;;;;;;;;;-144.99;99.71;52268.72;5042696;28;19948;-58
2022/05/07 05:36:26;;;;;;;;;;;;;;;-144.99;99.29;52256.50;5051513;28;19929;-64
2022/05/07 05:38:54;;;;;;;;;;;;;;;-144.99;98.06;52272.81;5037443;28;20020;-63
2022/05/07 05:41:21;;;;;;;;;;;;;;;-144.99;96.96;52272.81;5047985;28;19925;-62
2022/05/07 05:43:48;;;;;;;;;;;;;;;-144.99;96.57;52260.56;5040815;28;20359;-61
2022/05/07 05:46:14;;;;;;;;;;;;;;;-144.99;96.21;52270.78;5039612;28;19925;-62
2022/05/07 05:48:41;;;;;;;;;;;;;;;-144.99;95.06;52238.16;5044548;28;20370;-62
2022/05/07 05:51:07;;;;;;;;;;;;;;;-144.99;94.19;52227.97;5040975;28;19925;-61
2022/05/07 05:53:34;;;;;;;;;;;;;;;-144.99;93.21;52266.69;5053475;28;19925;-65
2022/05/07 05:56:01;;;;;;;;;;;;;;;-144.99;92.71;52236.13;5046035;28;19952;-64
2022/05/07 05:58:33;;;;;;;;;;;;;;;-144.99;91.61;52238.16;5043505;28;19932;-64
2022/05/07 06:00:59;;;;;;;;;;;;;;;-144.99;90.21;52227.97;5043808;28;20020;-64
2022/05/07 06:03:26;;;;;;;;;;;;;;;-144.99;89.47;52258.53;5049167;28;20206;-61
2022/05/07 06:05:52;;;;;;;;;;;;;;;-144.99;88.47;52219.81;5045974;28;19928;-62
2022/05/07 06:08:18;;;;;;;;;;;;;;;-144.99;87.93;52244.28;5046984;28;19940;-60
2022/05/07 06:10:45;;;;;;;;;;;;;;;-144.99;86.65;52240.19;5049480;28;19925;-60
2022/05/07 06:13:12;;;;;;;;;;;;;;;-144.99;84.39;52236.13;5043295;28;19946;-64
2022/05/07 06:15:39;;;;;;;;;;;;;;;-144.99;83.55;52240.19;5044580;28;20004;-65
2022/05/07 06:18:06;;;;;;;;;;;;;;;-144.99;82.15;52232.03;5049638;28;19936;-67
2022/05/07 06:20:32;;;;;;;;;;;;;;;-144.99;81.44;52227.97;5042075;28;19925;-65
2022/05/07 06:22:59;;;;;;;;;;;;;;;-144.99;80.10;52232.03;5048372;28;19940;-66
2022/05/07 06:28:09;;;;;;;;;;;;;;;-144.99;79.88;52223.88;5042648;28;19940;-65
2022/05/07 06:30:37;;;;;;;;;;;;;;;-144.99;79.62;52260.56;5047567;28;20083;-66
2022/05/07 06:33:04;;;;;;;;;;;;;;;-144.99;79.13;52207.59;5043018;28;19956;-64
2022/05/07 06:35:30;;;;;;;;;;;;;;;-144.99;77.64;52254.47;5044695;28;19947;-63
2022/05/07 06:37:57;;;;;;;;;;;;;;;-144.99;76.91;52248.34;5044752;28;19929;-62
2022/05/07 06:40:23;;;;;;;;;;;;;;;-144.99;78.23;52232.03;5047465;28;19931;-63
2022/05/07 06:42:50;;;;;;;;;;;;;;;-144.99;78.76;52260.56;5034445;28;19929;-62
2022/05/07 06:45:16;;;;;;;;;;;;;;;-144.99;79.37;52215.75;5035620;28;19983;-61
2022/05/07 06:47:44;;;;;;;;;;;;;;;-144.99;79.07;52244.28;5044105;28;19925;-61
2022/05/07 06:50:12;;;;;;;;;;;;;;;-144.99;78.10;52248.34;5042600;28;19925;-64
2022/05/07 06:52:45;;;;;;;;;;;;;;;-144.99;77.88;52256.50;5040919;28;20158;-62
2022/05/07 06:55:12;;;;;;;;;;;;;;;-144.99;78.05;52199.44;5048924;28;19932;-63
2022/05/07 06:57:39;;;;;;;;;;;;;;;-144.99;78.31;52305.41;5049726;28;19931;-61
2022/05/07 07:00:06;;;;;;;;;;;;;;;-144.99;77.63;52250.38;5036970;28;19925;-64
2022/05/07 07:02:32;;;;;;;;;;;;;;;-144.99;77.51;52240.19;5048019;28;19925;-65
2022/05/07 07:05:00;;;;;;;;;;;;;;;-144.99;77.04;52223.88;5043561;28;19929;-64
2022/05/07 07:07:27;;;;;;;;;;;;;;;-144.99;76.40;52252.44;5038515;28;19929;-65
2022/05/07 07:09:53;;;;;;;;;;;;;;;-144.99;76.32;52207.59;5033072;28;19979;-65
2022/05/07 07:12:20;;;;;;;;;;;;;;;-144.99;75.84;52205.53;5046513;28;20374;-65
2022/05/07 07:14:47;;;;;;;;;;;;;;;-144.99;75.42;52232.03;5043472;28;19936;-63
2022/05/07 07:17:13;;;;;;;;;;;;;;;-144.99;74.77;52203.50;5047299;28;19969;-65
2022/05/07 07:19:41;;;;;;;;;;;;;;;-144.99;74.25;52195.34;5045137;28;19925;-63
2022/05/07 07:22:09;;;;;;;;;;;;;;;-144.99;74.42;52260.56;5043287;28;19924;-65
2022/05/07 07:24:35;;;;;;;;;;;;;;;-144.99;74.72;52232.03;5046477;28;19925;-66
2022/05/07 07:27:02;;;;;;;;;;;;;;;-144.99;74.38;52236.13;5040608;28;20289;-64
2022/05/07 07:29:29;;;;;;;;;;;;;;;-144.99;74.36;52225.94;5041233;28;19925;-64
2022/05/07 07:31:55;;;;;;;;;;;;;;;-144.99;74.55;52199.44;5050601;28;19925;-63
2022/05/07 07:34:22;;;;;;;;;;;;;;;-144.99;72.58;52209.63;5037617;28;20349;-65
2022/05/07 07:36:50;;;;;;;;;;;;;;;-144.99;71.82;52258.53;5050634;28;19925;-66
2022/05/07 07:39:18;;;;;;;;;;;;;;;-144.99;70.47;52223.88;5034404;28;19929;-64
2022/05/07 07:41:44;;;;;;;;;;;;;;;-144.99;70.25;52236.13;5045484;28;19929;-65
2022/05/07 07:44:10;;;;;;;;;;;;;;;-144.99;69.62;52213.69;5048324;28;19956;-64
2022/05/07 07:49:21;;;;;;;;;;;;;;;-144.99;68.71;52207.59;5042014;28;19939;-64
2022/05/07 07:51:47;;;;;;;;;;;;;;;-144.99;68.32;52207.59;5041426;28;20136;-64
2022/05/07 07:54:14;;;;;;;;;;;;;;;-144.99;67.86;52199.44;5044824;28;20444;-64
2022/05/07 07:56:43;;;;;;;;;;;;;;;-144.99;68.02;52236.13;5046921;28;19940;-64
2022/05/07 07:59:09;;;;;;;;;;;;;;;-144.99;68.40;52211.66;5041857;28;19925;-64
2022/05/07 08:01:35;;;;;;;;;;;;;;;-144.99;68.13;52193.31;5034132;28;19932;-66
2022/05/07 08:04:02;;;;;;;;;;;;;;;-144.99;67.89;52236.13;5043433;28;20218;-65
2022/05/07 08:06:30;;;;;;;;;;;;;;;-144.99;67.13;52207.59;5040555;28;19924;-63
2022/05/07 08:11:42;;;;;;;;;;;;;;;-144.99;67.04;52209.63;5038475;28;19932;-64
2022/05/07 08:14:08;;;;;;;;;;;;;;;-144.99;66.98;52215.75;5052718;22;19913;-66
2022/05/07 08:16:35;;;;;;;;;;;;;;;-144.99;67.00;52244.28;5057349;28;19936;-63
2022/05/07 08:19:03;;;;;;;;;;;;;;;-144.99;66.65;52203.50;5061518;28;19925;-64
2022/05/07 08:21:29;;;;;;;;;;;;;;;-144.99;66.35;52211.66;5059489;28;20396;-64
2022/05/07 08:23:56;;;;;;;;;;;;;;;-144.99;66.36;52232.03;5060326;28;19928;-63
2022/05/07 08:26:22;;;;;;;;;;;;;;;-144.99;66.21;52179.06;5061359;28;20212;-64
2022/05/07 08:28:51;;;;;;;;;;;;;;;-144.99;65.59;52195.34;5054581;28;19931;-66
2022/05/07 08:31:18;;;;;;;;;;;;;;;-144.99;65.76;52219.81;5060000;28;19924;-65
2022/05/07 08:33:45;;;;;;;;;;;;;;;-144.99;66.86;52215.75;5063457;28;19928;-63
2022/05/07 08:36:11;;;;;;;;;;;;;;;-144.99;66.45;52191.28;5062170;28;19925;-63
2022/05/07 08:38:38;;;;;;;;;;;;;;;-144.99;66.14;52230.00;5061127;28;19925;-65
2022/05/07 08:41:05;;;;;;;;;;;;;;;-144.99;65.59;52215.75;5051675;28;19925;-65
2022/05/07 08:43:36;;;;;;;;;;;;;;;-144.99;64.91;52195.34;5064835;28;19986;-64
2022/05/07 08:46:04;;;;;;;;;;;;;;;-144.99;64.49;52207.59;5058040;28;19928;-65
2022/05/07 08:48:30;;;;;;;;;;;;;;;-144.99;63.17;52185.16;5063770;28;19931;-65
2022/05/07 08:50:57;;;;;;;;;;;;;;;-144.99;63.39;52195.34;5058599;28;20380;-64
2022/05/07 08:53:23;;;;;;;;;;;;;;;-144.99;63.93;52209.63;5055504;28;19932;-64
2022/05/07 08:55:54;;;;;;;;;;;;;;;-144.99;63.48;52207.59;5054111;28;19931;-66
2022/05/07 08:58:20;;;;;;;;;;;;;;;-144.99;63.21;52187.19;5057636;28;19978;-65
2022/05/07 09:00:47;;;;;;;;;;;;;;;-144.99;62.71;52179.06;5057943;28;19936;-63
2022/05/07 09:03:16;;;;;;;;;;;;;;;-144.99;62.22;52195.34;5065342;28;19925;-64
2022/05/07 09:05:43;;;;;;;;;;;;;;;-144.99;61.99;52203.50;5058102;28;19996;-64
2022/05/07 09:08:10;;;;;;;;;;;;;;;-144.99;61.50;52160.72;5059624;28;20266;-67
2022/05/07 09:10:37;;;;;;;;;;;;;;;-144.99;61.81;52236.13;5060076;28;19933;-66
2022/05/07 09:13:13;;;;;;;;;;;;;;;-144.99;61.91;52203.50;5055928;28;19925;-67
2022/05/07 09:15:49;;;;;;;;;;;;;;;-144.99;60.86;52199.44;5061212;28;19924;-67
2022/05/07 09:18:18;;;;;;;;;;;;;;;-144.99;61.07;52158.66;5056298;28;20011;-66
2022/05/07 09:20:44;;;;;;;;;;;;;;;-144.99;60.82;52174.97;5054728;28;19925;-67
2022/05/07 09:23:11;;;;;;;;;;;;;;;-144.99;60.30;52154.59;5061018;28;20054;-71
2022/05/07 09:25:44;;;;;;;;;;;;;;;-144.99;59.15;52170.91;5058430;28;19925;-71
2022/05/07 09:28:11;;;;;;;;;;;;;;;-144.99;59.13;52126.06;5065953;28;19956;-71
2022/05/07 09:30:38;;;;;;;;;;;;;;;-144.99;59.01;52136.25;5062595;28;20388;-71
2022/05/07 09:33:06;;;;;;;;;;;;;;;-144.99;58.76;52158.66;5066468;28;20364;-70
2022/05/07 09:38:23;;;;;;;;;;;;;;;-144.99;57.84;52154.59;5062461;28;20385;-71
2022/05/07 09:40:49;;;;;;;;;;;;;;;-144.99;57.32;52132.19;5059940;28;19925;-70
2022/05/07 09:43:16;;;;;;;;;;;;;;;-144.99;56.63;52121.97;5070177;28;20416;-70
2022/05/07 09:45:42;;;;;;;;;;;;;;;-144.99;54.97;52138.28;5063757;28;20022;-70
2022/05/07 09:48:10;;;;;;;;;;;;;;;-144.99;53.82;52062.88;5063633;28;19929;-71
2022/05/07 09:50:47;;;;;;;;;;;;;;;-144.99;53.22;52073.06;5070560;28;19998;-71
2022/05/07 09:58:43;;;;;;;;;;;;;;;-144.99;48.75;52134.22;5062411;28;19936;-71
2022/05/07 10:01:17;;;;;;;;;;;;;;;-144.99;48.40;52101.59;5055119;28;19924;-71
2022/05/07 10:03:50;;;;;;;;;;;;;;;-144.99;48.33;52071.03;5058215;28;19924;-71
2022/05/07 10:06:31;;;;;;;;;;;;;;;-144.99;48.86;52126.06;5059088;28;19935;-71
2022/05/07 10:09:10;;;;;;;;;;;;;;;-144.99;49.33;52121.97;5056489;28;19925;-71
2022/05/07 10:11:37;;;;;;;;;;;;;;;-144.99;49.15;52109.75;5058019;28;20420;-71
2022/05/07 10:14:03;;;;;;;;;;;;;;;-144.99;50.21;52146.44;5060179;28;19924;-71
2022/05/07 10:16:30;;;;;;;;;;;;;;;-144.99;50.16;52134.22;5061830;28;19936;-71
2022/05/07 10:18:56;;;;;;;;;;;;;;;-144.99;50.27;52142.38;5052277;28;20011;-71
2022/05/07 10:21:23;;;;;;;;;;;;;;;-144.99;50.78;52103.66;5055689;28;19951;-71
2022/05/07 10:23:52;;;;;;;;;;;;;;;-144.99;51.07;52130.13;5059375;28;19948;-72
2022/05/07 10:26:19;;;;;;;;;;;;;;;-144.99;51.43;52142.38;5056261;28;20281;-70
2022/05/07 10:28:45;;;;;;;;;;;;;;;-144.99;51.42;52146.44;5066793;28;19924;-70
2022/05/07 10:31:19;;;;;;;;;;;;;;;-144.99;51.89;52148.47;5056850;28;20187;-71
2022/05/07 10:33:46;;;;;;;;;;;;;;;-144.99;52.12;52134.22;5052332;28;19931;-70
2022/05/07 10:36:13;;;;;;;;;;;;;;;-144.99;52.16;52097.53;5057017;28;19931;-70
2022/05/07 10:38:42;;;;;;;;;;;;;;;-144.99;52.33;52146.44;5063763;28;19931;-70
2022/05/07 10:41:19;;;;;;;;;;;;;;;-144.99;52.66;52150.53;5063150;28;19947;-70
2022/05/07 10:43:47;;;;;;;;;;;;;;;-144.99;53.25;52183.13;5065327;28;19971;-71
2022/05/07 10:46:16;;;;;;;;;;;;;;;-144.99;53.71;52195.34;5055476;28;19932;-71
2022/05/07 10:48:44;;;;;;;;;;;;;;;-144.99;54.03;52168.84;5069051;28;19924;-71
2022/05/07 10:51:17;;;;;;;;;;;;;;;-144.99;53.72;52187.19;5085006;28;19913;-71
2022/05/07 10:53:43;;;;;;;;;;;;;;;-144.99;53.50;52179.06;5085378;28;19948;-71
2022/05/07 10:56:15;;;;;;;;;;;;;;;-144.99;53.33;52211.66;5079575;28;19948;-71
2022/05/07 10:58:45;;;;;;;;;;;;;;;-144.99;53.49;52211.66;5081308;28;19925;-71
2022/05/07 11:01:12;;;;;;;;;;;;;;;-144.99;54.32;52215.75;5081690;28;19924;-71
2022/05/07 11:03:40;;;;;;;;;;;;;;;-144.99;55.26;52183.13;5076231;28;19935;-72
2022/05/07 11:06:06;;;;;;;;;;;;;;;-144.99;56.34;52223.88;5083830;28;19925;-71
2022/05/07 11:08:34;;;;;;;;;;;;;;;-144.99;56.29;52217.78;5076677;28;19935;-71
2022/05/07 11:11:04;;;;;;;;;;;;;;;-144.99;56.34;52225.94;5068806;28;19970;-72
2022/05/07 11:13:32;;;;;;;;;;;;;;;-144.99;57.45;52162.75;5065643;28;19939;-71
2022/05/07 11:16:04;;;;;;;;;;;;;;;-144.99;58.18;52195.34;5072488;28;19935;-72
2022/05/07 11:18:33;;;;;;;;;;;;;;;-144.99;58.68;52248.34;5060488;28;19924;-71
2022/05/07 11:21:03;;;;;;;;;;;;;;;-144.99;59.35;52215.75;5063385;28;20304;-72
2022/05/07 11:23:30;;;;;;;;;;;;;;;-144.99;59.44;52211.66;5065597;28;20182;-72
2022/05/07 11:25:57;;;;;;;;;;;;;;;-144.99;59.60;52207.59;5058200;28;19967;-72
2022/05/07 11:28:23;;;;;;;;;;;;;;;-144.99;59.33;52215.75;5053142;28;19925;-72
2022/05/07 11:30:52;;;;;;;;;;;;;;;-144.99;59.10;52179.06;5055275;28;20281;-72
2022/05/07 11:33:23;;;;;;;;;;;;;;;-144.99;58.41;52170.91;5061461;28;19928;-73
2022/05/07 11:35:59;;;;;;;;;;;;;;;-144.99;56.80;52183.13;5056396;28;19925;-72
2022/05/07 11:38:26;;;;;;;;;;;;;;;-144.99;55.12;52146.44;5058955;28;19925;-72
2022/05/07 11:40:52;;;;;;;;;;;;;;;-144.99;54.83;52162.75;5057638;28;19932;-73
2022/05/07 11:46:08;;;;;;;;;;;;;;;-144.99;54.92;52154.59;5058188;28;20420;-73
2022/05/07 11:48:34;;;;;;;;;;;;;;;-144.99;55.05;52199.44;5053978;28;19943;-72
2022/05/07 11:51:01;;;;;;;;;;;;;;;-144.99;54.49;52162.75;5062080;28;19941;-72
2022/05/07 11:53:28;;;;;;;;;;;;;;;-144.99;54.53;52166.81;5056236;28;20244;-72
2022/05/07 11:56:05;;;;;;;;;;;;;;;-144.99;54.45;52179.06;5052399;28;20082;-71
2022/05/07 11:58:38;;;;;;;;;;;;;;;-144.99;54.60;52203.50;5053483;28;19925;-71
2022/05/07 12:01:06;;;;;;;;;;;;;;;-144.99;55.03;52207.59;5057119;28;19935;-71
2022/05/07 12:03:33;;;;;;;;;;;;;;;-144.99;54.90;52142.38;5058009;28;19929;-71
2022/05/07 12:06:00;;;;;;;;;;;;;;;-144.99;54.35;52138.28;5070799;28;19924;-72
2022/05/07 12:08:31;;;;;;;;;;;;;;;-144.99;54.14;52203.50;5053901;28;20360;-71
2022/05/07 12:10:58;;;;;;;;;;;;;;;-144.99;54.15;52174.97;5050729;28;20098;-72
2022/05/07 12:13:25;;;;;;;;;;;;;;;-144.99;53.70;52109.75;5050237;28;20274;-71
2022/05/07 12:18:37;;;;;;;;;;;;;;;-144.99;53.58;52189.25;5053296;28;19947;-70
2022/05/07 12:21:04;;;;;;;;;;;;;;;-144.99;53.13;52170.91;5055165;28;19931;-70
2022/05/07 12:31:44;;;;;;;;;;;;;;;-144.99;54.50;52203.50;5057328;28;19967;-56
2022/05/07 12:34:12;;;;;;;;;;;;;;;-144.99;54.59;52185.16;5052578;28;19982;-71
2022/05/07 12:36:38;;;;;;;;;;;;;;;-144.99;54.79;52183.13;5057967;28;19944;-71
2022/05/07 12:39:04;;;;;;;;;;;;;;;-144.99;54.94;52146.44;5057811;28;19924;-70
2022/05/07 12:41:31;;;;;;;;;;;;;;;-144.99;55.30;52201.47;5058093;28;19931;-72
2022/05/07 12:43:59;;;;;;;;;;;;;;;-144.99;56.00;52179.06;5057654;28;19936;-70
2022/05/07 12:46:27;;;;;;;;;;;;;;;-144.99;57.10;52191.28;5057055;28;20454;-71
2022/05/07 12:48:55;;;;;;;;;;;;;;;-144.99;57.55;52193.31;5061742;28;19931;-71
2022/05/07 12:51:25;;;;;;;;;;;;;;;-144.99;58.38;52219.81;5066733;28;19950;-71
2022/05/07 12:53:52;;;;;;;;;;;;;;;-144.99;58.97;52215.75;5058191;28;20097;-71
2022/05/07 12:56:18;;;;;;;;;;;;;;;-144.99;59.17;52268.72;5057655;28;19939;-71
2022/05/07 12:58:44;;;;;;;;;;;;;;;-144.99;59.69;52227.97;5051120;28;20331;-71
2022/05/07 13:01:12;;;;;;;;;;;;;;;-144.99;60.00;52236.13;5057163;28;19925;-71